Waldeck, Texas
Current Conditions -  °F | °C
As of 11:55 AM on Friday 21 Nov 2014 (Local Time) from KGYB Reporting Station
Haze Haze  
Wind Chill: 66°   Ceiling: 300
Heat Index: 66°   Visibility: 4mi
Dew Point: 65°   Wind: 3mph
Humidity: 97%   Direction: 150°SSE
Pressure: 30.14"   Gusts: NA
Location:  30.2279°N, 96.7713°W
Report Text: KGYB 211755Z AUTO 15003KT 4SM BR OVC003 19/19 A3014 RMK AO2 T01900185 10190 20165
Loading
Personal Weather Stations






























Interactive Weather Map New forecast layout! Learn more

10-Day Weather Forecast

Advertisements
Track Severe Weather on mobile